Time;durP1;ratioP1;P1;durP2;ratioP2;P2;SDS_P1;SDS_P2;PMS_P1;PMS_P2;Temp;Humidity;BMP_temperature;BMP_pressure;BME280_temperature;BME280_humidity;BME280_pressure;Samples;Min_cycle;Max_cycle;Signal;HPM_P1;HPM_P2
2022/12/15 00:38:44;;;;;;;32.85;16.75;;;-0.70;99.90;;;;;;5012014;28;20090;-71
2022/12/15 00:41:12;;;;;;;36.22;17.85;;;-0.60;99.90;;;;;;5009945;28;20022;-71
2022/12/15 00:43:38;;;;;;;38.55;17.83;;;-0.60;99.90;;;;;;5005186;28;20034;-71
2022/12/15 00:48:49;;;;;;;36.22;17.23;;;-0.60;99.90;;;;;;5007269;28;20053;-71
2022/12/15 00:51:15;;;;;;;34.17;17.33;;;-0.60;99.90;;;;;;5005630;28;20026;-72
2022/12/15 01:21:09;;;;;;;32.50;16.50;;;-0.60;99.90;;;;;;4995474;28;20545;-70
2022/12/15 01:23:36;;;;;;;36.83;18.38;;;-0.70;99.90;;;;;;4994802;28;20064;-70
2022/12/15 01:26:04;;;;;;;31.90;16.88;;;-0.60;99.90;;;;;;4976817;28;20479;-70
2022/12/15 01:28:30;;;;;;;33.50;17.48;;;-0.60;99.90;;;;;;4994329;28;20049;-71
2022/12/15 01:30:55;;;;;;;37.00;17.77;;;-0.60;99.90;;;;;;4976841;28;20487;-71
2022/12/15 01:33:21;;;;;;;33.10;16.60;;;-0.60;99.90;;;;;;4978552;28;20026;-71
2022/12/15 01:35:57;;;;;;;31.58;16.88;;;-0.60;99.90;;;;;;4995020;28;20717;-71
2022/12/15 01:38:23;;;;;;;33.50;17.48;;;-0.70;99.90;;;;;;4999646;28;20027;-70
2022/12/15 01:41:03;;;;;;;36.65;17.77;;;-0.70;99.90;;;;;;4987418;28;20053;-71
2022/12/15 01:43:33;;;;;;;38.40;19.02;;;-0.80;99.90;;;;;;4989866;28;20034;-71
2022/12/15 01:46:03;;;;;;;29.67;16.80;;;-0.80;99.90;;;;;;5006525;28;20018;-71
2022/12/15 01:48:35;;;;;;;31.98;18.50;;;-0.80;99.90;;;;;;4983003;28;20037;-71
2022/12/15 01:51:22;;;;;;;34.03;17.75;;;-0.80;99.90;;;;;;4982204;28;20058;-71
2022/12/15 01:53:57;;;;;;;34.72;17.73;;;-0.80;99.90;;;;;;4959090;28;20117;-71
2022/12/15 01:56:23;;;;;;;35.10;17.25;;;-0.80;99.90;;;;;;4984032;28;20023;-71
2022/12/15 01:58:51;;;;;;;36.00;17.98;;;-0.80;99.90;;;;;;4980625;28;20384;-71
2022/12/15 02:01:17;;;;;;;30.98;17.17;;;-0.80;99.90;;;;;;4974965;28;20030;-71
2022/12/15 02:03:43;;;;;;;33.27;17.43;;;-0.80;99.90;;;;;;4957433;28;20027;-71
2022/12/15 02:06:10;;;;;;;40.58;19.30;;;-0.80;99.90;;;;;;4975873;28;20030;-71
2022/12/15 02:08:36;;;;;;;42.05;18.50;;;-0.80;99.90;;;;;;4957165;28;20054;-70
2022/12/15 02:11:24;;;;;;;37.92;18.42;;;-0.80;99.90;;;;;;4956663;28;20066;-71
2022/12/15 02:14:04;;;;;;;34.47;17.42;;;-0.70;99.90;;;;;;4973770;28;20027;-70
2022/12/15 02:16:56;;;;;;;35.45;16.13;;;-0.70;99.90;;;;;;4974306;28;20535;-71
2022/12/15 02:19:40;;;;;;;32.65;17.27;;;-0.70;99.90;;;;;;4957170;28;20038;-70
2022/12/15 02:22:24;;;;;;;34.00;17.52;;;-0.70;99.90;;;;;;4976349;28;20019;-70
2022/12/15 02:25:02;;;;;;;37.50;17.83;;;-0.80;99.90;;;;;;4989308;28;20046;-70
2022/12/15 02:28:09;;;;;;;35.13;17.88;;;-0.70;99.90;;;;;;4988902;28;20078;-70
2022/12/15 02:31:48;;;;;;;34.45;18.27;;;-0.70;99.90;;;;;;4971524;28;20118;-71
2022/12/15 02:33:42;;;;;;;35.78;17.42;;;-0.70;99.90;;;;;;4974204;28;20023;-70
2022/12/15 02:36:17;;;;;;;37.22;18.25;;;-0.70;99.90;;;;;;4973082;28;20031;-70
2022/12/15 02:38:43;;;;;;;37.30;18.60;;;-0.70;99.90;;;;;;4974267;28;20035;-70
2022/12/15 02:41:33;;;;;;;38.10;18.42;;;-0.60;99.90;;;;;;4988889;28;20432;-71
2022/12/15 02:44:02;;;;;;;37.35;19.35;;;-0.70;99.90;;;;;;4974163;28;20058;-71
2022/12/15 02:46:59;;;;;;;36.17;18.40;;;-0.70;99.90;;;;;;4975154;28;20468;-71
2022/12/15 02:49:47;;;;;;;37.97;18.48;;;-0.70;99.90;;;;;;4992907;28;20027;-71
2022/12/15 02:52:36;;;;;;;41.75;19.65;;;-0.70;99.90;;;;;;4992917;28;20089;-71
2022/12/15 02:55:19;;;;;;;38.08;19.25;;;-0.70;99.90;;;;;;4976477;28;20062;-71
2022/12/15 02:57:53;;;;;;;35.83;18.30;;;-0.70;99.90;;;;;;4977826;28;20033;-71
2022/12/15 03:00:20;;;;;;;35.08;18.20;;;-0.70;99.90;;;;;;4992623;28;20026;-71
2022/12/15 03:02:49;;;;;;;36.00;17.55;;;-0.70;99.90;;;;;;4976808;28;20031;-71
2022/12/15 03:05:17;;;;;;;37.53;18.83;;;-0.70;99.90;;;;;;4976410;28;20522;-71
2022/12/15 03:07:42;;;;;;;38.65;18.02;;;-0.70;99.90;;;;;;4976338;28;20481;-71
2022/12/15 03:10:11;;;;;;;40.90;18.67;;;-0.70;99.90;;;;;;4977882;28;20050;-75
2022/12/15 03:12:36;;;;;;;38.00;18.85;;;-0.70;99.90;;;;;;4980519;28;20050;-75
2022/12/15 03:15:02;;;;;;;35.83;18.47;;;-0.70;99.90;;;;;;4978077;28;20479;-75
2022/12/15 03:17:28;;;;;;;37.33;19.15;;;-0.70;99.90;;;;;;4993123;28;20035;-75
2022/12/15 03:19:53;;;;;;;37.67;17.40;;;-0.70;99.90;;;;;;5000937;28;20491;-75
2022/12/15 03:22:19;;;;;;;36.23;18.03;;;-0.70;99.90;;;;;;4996665;28;20030;-75
2022/12/15 03:24:45;;;;;;;35.20;18.83;;;-0.70;99.90;;;;;;4995178;28;20034;-75
2022/12/15 03:27:10;;;;;;;39.00;19.40;;;-0.80;99.90;;;;;;4995684;28;20081;-75
2022/12/15 03:29:36;;;;;;;35.33;19.13;;;-0.80;99.90;;;;;;4995590;28;20030;-75
2022/12/15 03:32:02;;;;;;;37.87;19.10;;;-0.80;99.90;;;;;;4995620;28;20349;-75
2022/12/15 03:34:27;;;;;;;38.30;19.00;;;-0.80;99.90;;;;;;4995656;28;20066;-75
2022/12/15 03:36:53;;;;;;;39.23;18.80;;;-0.70;99.90;;;;;;4995680;28;20037;-75
2022/12/15 03:39:18;;;;;;;39.30;17.63;;;-0.60;99.90;;;;;;4996366;28;20471;-74
2022/12/15 03:41:44;;;;;;;38.67;18.77;;;-0.70;99.90;;;;;;4993431;28;20034;-75
2022/12/15 03:44:10;;;;;;;39.93;19.97;;;-0.70;99.90;;;;;;4995482;28;20356;-75
2022/12/15 03:46:35;;;;;;;35.10;18.05;;;-0.70;99.90;;;;;;4996754;28;20032;-75
2022/12/15 03:49:01;;;;;;;37.87;19.00;;;-0.70;99.90;;;;;;4995638;28;20125;-75
2022/12/15 03:51:26;;;;;;;35.33;17.33;;;-0.70;99.90;;;;;;4996346;28;20022;-74
2022/12/15 03:53:53;;;;;;;37.60;19.13;;;-0.70;99.90;;;;;;4998600;28;20029;-75
2022/12/15 03:56:19;;;;;;;35.85;18.15;;;-0.70;99.90;;;;;;4997029;28;20387;-75
2022/12/15 03:58:44;;;;;;;37.33;18.42;;;-0.80;99.90;;;;;;4996190;28;20031;-75
2022/12/15 04:01:17;;;;;;;36.50;19.13;;;-0.70;99.90;;;;;;4996856;28;20029;-76
2022/12/15 04:03:43;;;;;;;35.83;18.50;;;-0.70;99.90;;;;;;4996536;28;20035;-75
2022/12/15 04:06:09;;;;;;;35.43;18.57;;;-0.70;99.90;;;;;;4996605;28;20026;-75
2022/12/15 04:08:34;;;;;;;33.93;17.40;;;-0.70;99.90;;;;;;4996921;28;20026;-75
2022/12/15 04:11:00;;;;;;;41.77;19.93;;;-0.60;99.90;;;;;;4996106;28;20102;-75
2022/12/15 04:13:25;;;;;;;34.03;17.63;;;-0.60;99.90;;;;;;5000985;28;20033;-75
2022/12/15 04:15:51;;;;;;;38.07;19.43;;;-0.70;99.90;;;;;;5003409;28;20058;-75
2022/12/15 04:18:16;;;;;;;36.90;17.73;;;-0.70;99.90;;;;;;5001545;28;20030;-75
2022/12/15 04:20:42;;;;;;;37.80;19.53;;;-0.70;99.90;;;;;;4995297;28;20036;-74
2022/12/15 04:23:07;;;;;;;36.23;18.93;;;-0.80;99.90;;;;;;4995492;28;20106;-74
2022/12/15 05:31:55;;;;;;;37.10;19.08;;;-0.70;99.90;;;;;;4993698;28;20038;-73
2022/12/15 05:34:22;;;;;;;37.80;18.97;;;-0.70;99.90;;;;;;4993015;28;20026;-71
2022/12/15 05:36:49;;;;;;;35.65;17.85;;;-0.70;99.90;;;;;;4976191;28;20085;-71
2022/12/15 05:39:14;;;;;;;;;;;-0.70;99.90;;;;;;4993642;28;20125;-70
2022/12/15 05:41:40;;;;;;;37.78;17.35;;;-0.70;99.90;;;;;;4994116;28;19953;-70
2022/12/15 05:44:06;;;;;;;38.38;19.02;;;-0.70;99.90;;;;;;5001447;28;20034;-72
2022/12/15 05:46:31;;;;;;;38.27;18.43;;;-0.70;99.90;;;;;;5009564;28;20029;-71
2022/12/15 05:48:57;;;;;;;37.70;18.73;;;-0.60;99.90;;;;;;4996377;28;20356;-74
2022/12/15 05:51:22;;;;;;;40.27;18.60;;;-0.60;99.90;;;;;;4998027;28;20023;-70
2022/12/15 05:53:48;;;;;;;41.03;19.07;;;-0.70;99.90;;;;;;4999746;28;20102;-71
2022/12/15 05:56:14;;;;;;;36.77;18.83;;;-0.60;99.90;;;;;;4997423;28;20038;-71
2022/12/15 05:58:40;;;;;;;39.90;18.55;;;-0.60;99.90;;;;;;4998379;28;20044;-70
2022/12/15 06:01:10;;;;;;;40.30;18.83;;;-0.60;99.90;;;;;;5008584;28;20034;-72
2022/12/15 06:03:36;;;;;;;42.22;20.02;;;-0.60;99.90;;;;;;4993870;28;20037;-73
2022/12/15 06:06:03;;;;;;;41.10;19.83;;;-0.60;99.90;;;;;;4978466;28;20035;-70
2022/12/15 06:08:29;;;;;;;;;;;-0.70;99.90;;;;;;4973728;28;20035;-70
2022/12/15 06:10:55;;;;;;;45.25;19.90;;;-0.70;99.90;;;;;;4974376;28;19918;-71
2022/12/15 06:13:22;;;;;;;39.63;19.55;;;-0.70;99.90;;;;;;4974701;28;20027;-70
2022/12/15 06:15:56;;;;;;;37.55;19.38;;;-0.80;99.90;;;;;;4979294;28;20041;-70
2022/12/15 06:18:22;;;;;;;44.90;21.27;;;-0.70;99.90;;;;;;5008264;28;20030;-73
2022/12/15 06:20:48;;;;;;;42.03;20.45;;;-0.70;99.90;;;;;;5016057;28;20064;-73
2022/12/15 06:23:13;;;;;;;41.10;20.27;;;-0.70;99.90;;;;;;5005333;28;20041;-73
2022/12/15 06:25:39;;;;;;;37.87;19.43;;;-0.70;99.90;;;;;;5001081;28;20030;-74
2022/12/15 06:28:04;;;;;;;39.83;20.10;;;-0.70;99.90;;;;;;5002096;28;20061;-74
2022/12/15 06:30:30;;;;;;;41.93;20.73;;;-0.60;99.90;;;;;;5001095;28;20050;-73
2022/12/15 06:32:56;;;;;;;37.55;19.30;;;-0.60;99.90;;;;;;4999968;28;20041;-73
2022/12/15 06:35:21;;;;;;;43.63;20.83;;;-0.50;99.90;;;;;;4998278;28;20030;-74
2022/12/15 06:37:47;;;;;;;42.40;19.40;;;-0.60;99.90;;;;;;4999519;28;20030;-74
2022/12/15 06:40:12;;;;;;;47.97;20.13;;;-0.60;99.90;;;;;;4998413;28;20041;-73
2022/12/15 06:42:38;;;;;;;38.40;19.63;;;-0.60;99.90;;;;;;4998934;28;20057;-73
2022/12/15 06:45:04;;;;;;;45.83;20.83;;;-0.60;99.90;;;;;;5004142;28;20030;-73
2022/12/15 06:47:30;;;;;;;39.08;19.23;;;-0.60;99.90;;;;;;4996392;28;20023;-73
2022/12/15 06:49:55;;;;;;;39.93;19.83;;;-0.60;99.90;;;;;;4998210;28;20033;-72
2022/12/15 06:52:21;;;;;;;41.73;20.17;;;-0.60;99.90;;;;;;4999719;28;20113;-73
2022/12/15 06:54:46;;;;;;;41.20;19.87;;;-0.50;99.90;;;;;;5013191;28;20030;-74
2022/12/15 06:57:12;;;;;;;42.70;21.13;;;-0.60;99.90;;;;;;5012941;28;20141;-74
2022/12/15 06:59:38;;;;;;;36.40;18.43;;;-0.60;99.90;;;;;;4997037;28;20038;-73
2022/12/15 07:02:03;;;;;;;40.58;20.67;;;-0.60;99.90;;;;;;4999680;28;20088;-74
2022/12/15 07:04:31;;;;;;;40.37;19.73;;;-0.50;99.90;;;;;;4999316;28;20037;-74
2022/12/15 07:06:57;;;;;;;44.22;19.52;;;-0.50;99.90;;;;;;5015537;28;20037;-73
2022/12/15 07:09:24;;;;;;;38.97;19.90;;;-0.50;99.90;;;;;;4999347;28;20030;-73
2022/12/15 07:11:51;;;;;;;38.28;19.92;;;-0.50;99.90;;;;;;5013542;28;20113;-72
2022/12/15 07:14:16;;;;;;;43.03;20.08;;;-0.60;99.90;;;;;;5000489;28;20026;-74
2022/12/15 07:16:42;;;;;;;44.97;20.33;;;-0.60;99.90;;;;;;5004754;28;20092;-73
2022/12/15 07:19:11;;;;;;;40.40;20.50;;;-0.50;99.90;;;;;;5003669;28;20479;-73
2022/12/15 07:21:37;;;;;;;36.42;19.95;;;-0.50;99.90;;;;;;5006063;28;20049;-74
2022/12/15 07:24:02;;;;;;;43.33;21.03;;;-0.50;99.90;;;;;;5020683;28;20027;-74
2022/12/15 07:26:29;;;;;;;43.60;20.25;;;-0.60;99.90;;;;;;5004518;28;20026;-74
2022/12/15 07:28:54;;;;;;;40.33;20.50;;;-0.60;99.90;;;;;;5004719;28;20030;-72
2022/12/15 07:31:21;;;;;;;42.90;20.80;;;-0.60;99.90;;;;;;4999542;28;20384;-73
2022/12/15 07:33:47;;;;;;;43.28;20.67;;;-0.60;99.90;;;;;;5015322;28;20430;-72
2022/12/15 07:36:12;;;;;;;42.17;21.40;;;-0.60;99.90;;;;;;4997967;28;20042;-72
2022/12/15 07:38:38;;;;;;;46.03;22.07;;;-0.60;99.90;;;;;;4983276;28;20038;-73
2022/12/15 07:41:06;;;;;;;42.00;20.87;;;-0.60;99.90;;;;;;4986783;28;20456;-73
2022/12/15 07:43:31;;;;;;;45.47;20.08;;;-0.60;99.90;;;;;;5003618;28;20045;-74
2022/12/15 07:45:57;;;;;;;48.00;22.07;;;-0.60;99.90;;;;;;4984508;28;20030;-72
2022/12/15 07:48:23;;;;;;;43.22;21.88;;;-0.60;99.90;;;;;;4985412;28;20026;-73
2022/12/15 07:50:50;;;;;;;44.53;20.90;;;-0.70;99.90;;;;;;5000727;28;20388;-72
2022/12/15 07:53:23;;;;;;;42.50;20.63;;;-0.70;99.90;;;;;;4999082;28;20431;-73
2022/12/15 07:55:57;;;;;;;42.20;20.73;;;-0.70;99.90;;;;;;4998860;28;20034;-73
2022/12/15 07:58:23;;;;;;;46.72;22.20;;;-0.60;99.90;;;;;;5000255;28;20022;-73
2022/12/15 08:00:49;;;;;;;49.85;22.83;;;-0.60;99.90;;;;;;4990249;28;20026;-73
2022/12/15 08:03:14;;;;;;;40.93;20.83;;;-0.60;99.90;;;;;;4992734;28;20039;-73
2022/12/15 08:05:40;;;;;;;42.77;20.70;;;-0.60;99.90;;;;;;4995183;28;20058;-73
2022/12/15 08:08:05;;;;;;;38.33;19.50;;;-0.50;99.90;;;;;;5000130;28;20046;-72
2022/12/15 08:10:31;;;;;;;43.97;20.93;;;-0.50;99.90;;;;;;4995396;28;20033;-71
2022/12/15 08:12:56;;;;;;;40.47;19.57;;;-0.40;99.90;;;;;;4995150;28;20023;-72
2022/12/15 08:15:22;;;;;;;43.10;21.63;;;-0.40;99.90;;;;;;4996987;28;20034;-72
2022/12/15 08:17:48;;;;;;;43.50;21.80;;;-0.30;99.90;;;;;;4996752;28;20031;-72
2022/12/15 08:20:14;;;;;;;42.87;22.20;;;-0.40;99.90;;;;;;4995275;28;20109;-73
2022/12/15 08:22:39;;;;;;;42.53;20.02;;;-0.40;99.90;;;;;;4991094;28;20050;-73
2022/12/15 08:25:05;;;;;;;43.15;21.38;;;-0.30;99.90;;;;;;4995314;28;20368;-72
2022/12/15 08:27:31;;;;;;;46.50;20.80;;;-0.30;99.90;;;;;;4997242;28;20471;-72
2022/12/15 08:29:56;;;;;;;39.87;20.93;;;-0.30;99.90;;;;;;4996280;28;20034;-73
2022/12/15 08:32:22;;;;;;;41.03;21.33;;;-0.30;99.90;;;;;;4995118;28;20022;-72
2022/12/15 08:34:48;;;;;;;43.93;21.07;;;-0.30;99.90;;;;;;4998111;28;20455;-73
2022/12/15 08:37:14;;;;;;;40.55;20.83;;;-0.30;99.90;;;;;;4996501;28;20022;-73
2022/12/15 08:39:39;;;;;;;44.27;21.67;;;-0.40;99.90;;;;;;4995957;28;20474;-74
2022/12/15 08:42:06;;;;;;;41.13;20.60;;;-0.40;99.90;;;;;;4988136;28;20038;-73
2022/12/15 08:44:31;;;;;;;43.72;21.30;;;-0.40;99.90;;;;;;4978530;28;20388;-71
2022/12/15 08:46:57;;;;;;;43.03;21.40;;;-0.30;99.90;;;;;;4995807;28;20037;-72
2022/12/15 08:49:22;;;;;;;36.57;19.20;;;-0.30;99.90;;;;;;4994355;28;20028;-71
2022/12/15 08:51:49;;;;;;;39.87;20.53;;;-0.20;99.90;;;;;;4994811;28;20121;-71
2022/12/15 08:54:14;;;;;;;44.28;21.20;;;-0.20;99.90;;;;;;4994636;28;20026;-72
2022/12/15 08:56:40;;;;;;;43.30;21.93;;;-0.20;99.90;;;;;;4995858;28;20449;-72
2022/12/15 08:59:05;;;;;;;42.33;21.00;;;-0.20;99.90;;;;;;4994483;28;20522;-72
2022/12/15 09:01:32;;;;;;;42.30;22.00;;;-0.10;99.90;;;;;;4995480;28;20065;-71
2022/12/15 09:03:58;;;;;;;37.42;20.27;;;-0.10;99.90;;;;;;4993970;28;20030;-71
2022/12/15 09:06:29;;;;;;;42.70;21.50;;;-0.10;99.90;;;;;;4993728;28;20364;-73
2022/12/15 09:08:57;;;;;;;38.80;19.90;;;-0.10;99.90;;;;;;4995033;28;20054;-72
2022/12/15 09:11:24;;;;;;;42.47;21.13;;;-0.20;99.90;;;;;;4994427;28;20062;-72
2022/12/15 09:13:50;;;;;;;39.60;21.45;;;-0.20;99.90;;;;;;4994870;28;20027;-73
2022/12/15 09:16:17;;;;;;;40.53;20.50;;;-0.20;99.90;;;;;;4995117;28;20023;-73
2022/12/15 09:18:47;;;;;;;38.92;20.80;;;-0.20;99.90;;;;;;4994380;28;20120;-73
2022/12/15 09:21:14;;;;;;;41.92;21.58;;;-0.20;99.90;;;;;;4993546;28;20117;-73
2022/12/15 09:23:40;;;;;;;41.30;20.50;;;-0.10;99.90;;;;;;4994209;28;20446;-71
2022/12/15 09:26:09;;;;;;;37.97;20.30;;;0.00;99.90;;;;;;5009646;28;20057;-72
2022/12/15 09:28:36;;;;;;;42.17;20.92;;;0.00;99.90;;;;;;5002972;28;20113;-73
2022/12/15 09:31:06;;;;;;;44.45;21.60;;;0.00;99.90;;;;;;5015871;28;20017;-72
2022/12/15 09:33:32;;;;;;;41.45;21.75;;;0.10;99.90;;;;;;5016646;28;20033;-72
2022/12/15 09:35:58;;;;;;;41.70;20.80;;;0.10;99.90;;;;;;5021837;28;20510;-72
2022/12/15 09:38:23;;;;;;;44.63;21.43;;;0.20;99.90;;;;;;4999466;28;20030;-72
2022/12/15 09:40:49;;;;;;;44.50;21.60;;;0.30;99.90;;;;;;5011636;28;20391;-72
2022/12/15 09:43:20;;;;;;;43.73;20.87;;;0.50;99.90;;;;;;4997956;28;20056;-73
2022/12/15 09:45:53;;;;;;;38.13;20.52;;;0.50;99.90;;;;;;4998356;28;20053;-73
2022/12/15 09:48:23;;;;;;;40.67;21.48;;;0.50;99.90;;;;;;4996376;28;20468;-73
2022/12/15 09:50:52;;;;;;;40.90;20.48;;;0.20;99.90;;;;;;4977143;28;20034;-73
2022/12/15 09:53:22;;;;;;;41.78;20.63;;;0.00;99.90;;;;;;4995580;28;20026;-72
2022/12/15 09:55:52;;;;;;;39.20;20.33;;;-0.10;99.90;;;;;;4992980;28;20042;-72
2022/12/15 09:58:22;;;;;;;47.85;23.02;;;-0.10;99.90;;;;;;4994114;28;20118;-72
2022/12/15 10:01:20;;;;;;;47.75;21.92;;;-0.20;99.90;;;;;;5017770;23;20038;-69
2022/12/15 10:04:10;;;;;;;43.90;21.15;;;-0.20;99.90;;;;;;4965898;28;20034;-69
2022/12/15 10:06:50;;;;;;;41.22;20.80;;;-0.20;99.90;;;;;;4975601;28;20454;-69
2022/12/15 10:09:22;;;;;;;42.05;20.42;;;-0.20;99.90;;;;;;4975255;28;20491;-69
2022/12/15 10:11:50;;;;;;;40.75;20.73;;;-0.10;99.90;;;;;;4990577;28;20034;-69
2022/12/15 10:14:29;;;;;;;44.33;21.17;;;-0.20;99.90;;;;;;4975038;28;20022;-69
2022/12/15 10:17:41;;;;;;;45.28;21.42;;;-0.20;99.90;;;;;;4989677;28;20025;-69
2022/12/15 10:20:22;;;;;;;39.67;20.67;;;-0.10;99.90;;;;;;4953759;28;20031;-70
2022/12/15 10:22:50;;;;;;;43.05;20.80;;;0.00;99.90;;;;;;4939504;29;20023;-69
2022/12/15 10:25:21;;;;;;;46.13;21.98;;;0.10;99.90;;;;;;4957461;29;20076;-69
2022/12/15 10:28:09;;;;;;;45.22;21.55;;;0.30;99.90;;;;;;4957024;29;20056;-69
2022/12/15 10:30:36;;;;;;;;;;;0.40;99.90;;;;;;4954729;29;20031;-70
2022/12/15 10:33:18;;;;;;;42.15;19.75;;;0.50;99.90;;;;;;4953571;29;19997;-70
2022/12/15 10:35:45;;;;;;;41.72;20.80;;;0.50;99.90;;;;;;4937495;29;20023;-70
2022/12/15 10:38:33;;;;;;;45.05;21.10;;;0.60;99.90;;;;;;4953627;29;20063;-70
2022/12/15 10:41:01;;;;;;;45.35;21.58;;;0.60;99.90;;;;;;4953181;28;20032;-69
2022/12/15 10:43:33;;;;;;;45.83;22.90;;;0.60;99.90;;;;;;4953064;29;20042;-69
2022/12/15 10:46:10;;;;;;;48.08;22.08;;;0.60;99.90;;;;;;4953038;29;20411;-69
2022/12/15 10:48:36;;;;;;;46.30;22.85;;;0.70;99.90;;;;;;4953318;29;20020;-68
2022/12/15 10:51:36;;;;;;;48.90;22.63;;;0.80;99.90;;;;;;4976423;28;20502;-68
2022/12/15 10:54:05;;;;;;;46.90;22.65;;;0.70;99.90;;;;;;4993186;28;20117;-70
2022/12/15 10:56:32;;;;;;;38.85;20.02;;;0.70;99.90;;;;;;4993728;28;20018;-68
2022/12/15 10:59:01;;;;;;;43.25;22.63;;;0.60;99.90;;;;;;4994019;28;20033;-66
2022/12/15 11:01:29;;;;;;;44.75;22.00;;;0.50;99.90;;;;;;5009564;28;20030;-67
2022/12/15 11:03:55;;;;;;;44.47;21.92;;;0.50;99.90;;;;;;4990150;28;20043;-67
2022/12/15 11:06:30;;;;;;;42.17;21.27;;;0.40;99.90;;;;;;4992549;28;20022;-67
2022/12/15 11:09:07;;;;;;;44.22;21.92;;;0.50;99.90;;;;;;4985951;28;20121;-67
2022/12/15 11:14:42;;;;;;;49.10;23.15;;;0.40;99.90;;;;;;4996871;28;20443;-67
2022/12/15 11:17:08;;;;;;;47.97;22.05;;;0.30;99.90;;;;;;4996111;28;20384;-67
2022/12/15 11:19:54;;;;;;;46.35;21.27;;;0.30;99.90;;;;;;4996639;28;20113;-67
2022/12/15 11:22:45;;;;;;;45.28;23.05;;;0.40;99.90;;;;;;4997397;28;20030;-66
2022/12/15 11:25:22;;;;;;;45.67;22.75;;;0.40;99.90;;;;;;4998754;28;20093;-66
2022/12/15 11:27:50;;;;;;;43.00;22.27;;;0.50;99.90;;;;;;5001133;28;20029;-66
2022/12/15 11:30:21;;;;;;;45.38;23.13;;;0.50;99.90;;;;;;5000974;28;20027;-66
2022/12/15 11:32:57;;;;;;;44.63;21.30;;;0.50;99.90;;;;;;4991304;28;20019;-66
2022/12/15 11:35:36;;;;;;;41.33;20.87;;;0.40;99.90;;;;;;4977846;28;20472;-66
2022/12/15 11:38:21;;;;;;;43.60;20.88;;;0.50;99.90;;;;;;4975939;28;20053;-66
2022/12/15 11:40:48;;;;;;;44.05;22.10;;;0.50;99.90;;;;;;5002238;28;20117;-65
2022/12/15 11:43:39;;;;;;;45.70;22.30;;;0.40;99.90;;;;;;5011392;28;20030;-66
2022/12/15 11:46:14;;;;;;;42.75;20.65;;;0.30;99.90;;;;;;5013181;28;20029;-67
2022/12/15 11:49:00;;;;;;;43.60;21.92;;;0.30;99.90;;;;;;5000106;28;20021;-66
2022/12/15 11:51:53;;;;;;;42.65;21.40;;;0.30;99.90;;;;;;4996581;28;20475;-66
2022/12/15 11:54:23;;;;;;;38.17;19.98;;;0.40;99.90;;;;;;4992250;28;20113;-68
2022/12/15 11:56:55;;;;;;;41.90;20.88;;;0.40;99.90;;;;;;4993095;28;20030;-67
2022/12/15 11:59:55;;;;;;;42.00;21.70;;;0.40;99.90;;;;;;4977201;28;20412;-67
2022/12/15 12:02:28;;;;;;;39.58;19.85;;;0.40;99.90;;;;;;4977846;28;20407;-66
2022/12/15 12:05:18;;;;;;;43.42;20.48;;;0.40;99.90;;;;;;4993162;28;20118;-66
2022/12/15 12:08:15;;;;;;;41.03;21.63;;;0.30;99.90;;;;;;4977814;28;20034;-68
2022/12/15 12:10:52;;;;;;;45.10;21.35;;;0.40;99.90;;;;;;4976939;28;20023;-68
2022/12/15 12:13:36;;;;;;;41.80;20.40;;;0.40;99.90;;;;;;4976712;28;20030;-69
2022/12/15 12:16:19;;;;;;;41.13;20.73;;;0.30;99.90;;;;;;4976759;28;20061;-67
2022/12/15 12:18:56;;;;;;;39.65;19.92;;;0.30;99.90;;;;;;4978557;28;20471;-68
2022/12/15 12:21:41;;;;;;;42.97;20.63;;;0.40;99.90;;;;;;4993060;28;20041;-68
2022/12/15 12:24:22;;;;;;;39.60;20.52;;;0.50;99.90;;;;;;4982100;28;20027;-68
2022/12/15 12:27:19;;;;;;;37.92;20.48;;;0.50;99.90;;;;;;4976391;28;20539;-68
2022/12/15 12:29:57;;;;;;;39.40;19.48;;;0.50;99.90;;;;;;4976305;28;20097;-67
2022/12/15 12:32:48;;;;;;;41.30;20.90;;;0.60;99.90;;;;;;4976592;28;20026;-67
2022/12/15 12:35:27;;;;;;;39.38;20.10;;;0.80;99.90;;;;;;4976438;28;20026;-67
2022/12/15 12:37:58;;;;;;;38.00;18.23;;;0.80;99.90;;;;;;4976403;28;20447;-67
2022/12/15 12:40:30;;;;;;;35.38;18.42;;;0.80;99.90;;;;;;4976467;28;20027;-67
2022/12/15 12:42:57;;;;;;;37.15;19.67;;;0.90;99.90;;;;;;4974886;28;20031;-66
2022/12/15 12:45:46;;;;;;;37.08;19.67;;;0.80;99.90;;;;;;4974569;28;20077;-66
2022/12/15 12:48:55;;;;;;;37.40;18.20;;;0.80;99.90;;;;;;4990747;28;20029;-66
2022/12/15 12:51:26;;;;;;;38.00;19.17;;;0.80;99.90;;;;;;4974003;28;20033;-66
2022/12/15 12:53:52;;;;;;;38.55;18.92;;;0.70;99.90;;;;;;4973896;28;20039;-67
2022/12/15 12:56:27;;;;;;;;;;;0.70;99.90;;;;;;4974192;28;20039;-67
2022/12/15 12:58:53;;;;;;;37.72;19.95;;;0.70;99.90;;;;;;4973813;28;19910;-66
2022/12/15 13:01:29;;;;;;;36.07;18.07;;;0.70;99.90;;;;;;4973790;28;20042;-66
2022/12/15 13:04:32;;;;;;;33.83;18.23;;;0.70;99.90;;;;;;4982448;28;20403;-67
2022/12/15 13:07:02;;;;;;;35.08;17.40;;;0.70;99.90;;;;;;4914269;28;20158;-66
2022/12/15 13:10:01;;;;;;;33.42;17.40;;;0.80;99.90;;;;;;4992378;28;20022;-66
2022/12/15 13:12:44;;;;;;;35.38;17.30;;;0.80;99.90;;;;;;4993042;28;20057;-66
2022/12/15 13:15:46;;;;;;;38.97;19.05;;;0.90;99.90;;;;;;4993119;28;20114;-66
2022/12/15 13:18:23;;;;;;;33.40;18.33;;;0.90;99.90;;;;;;4934882;29;20038;-66
2022/12/15 13:20:53;;;;;;;40.38;20.02;;;1.00;99.90;;;;;;4935105;29;20083;-66
2022/12/15 13:23:22;;;;;;;40.35;19.73;;;1.10;99.90;;;;;;4935144;29;20043;-66
2022/12/15 13:25:56;;;;;;;38.35;20.10;;;1.00;99.90;;;;;;4921635;29;20051;-65
2022/12/15 13:28:41;;;;;;;44.78;20.38;;;1.00;99.90;;;;;;4916241;29;20035;-66
2022/12/15 13:31:19;;;;;;;42.38;19.70;;;1.00;99.90;;;;;;4915204;29;20076;-66
2022/12/15 13:33:51;;;;;;;40.90;19.85;;;1.20;99.90;;;;;;4915936;29;20082;-66
2022/12/15 13:36:35;;;;;;;41.10;20.13;;;1.30;99.90;;;;;;4917016;29;20064;-66
2022/12/15 13:39:10;;;;;;;38.60;19.15;;;1.20;99.90;;;;;;4918614;29;20040;-66
2022/12/15 13:41:35;;;;;;;42.10;20.90;;;1.30;99.90;;;;;;4916854;29;20036;-66
2022/12/15 13:44:14;;;;;;;38.23;19.80;;;1.30;99.90;;;;;;4921419;29;20119;-66
2022/12/15 13:46:44;;;;;;;40.05;20.80;;;1.30;99.90;;;;;;4918472;29;20509;-67
2022/12/15 13:49:24;;;;;;;40.45;20.63;;;1.30;99.90;;;;;;4917891;29;20028;-66
2022/12/15 13:51:49;;;;;;;35.88;18.10;;;1.30;99.90;;;;;;4945836;28;20090;-68
2022/12/15 13:54:32;;;;;;;36.47;18.93;;;1.40;99.90;;;;;;5010071;28;20022;-67
2022/12/15 13:57:03;;;;;;;37.03;18.80;;;1.40;99.90;;;;;;4993331;28;20034;-66
2022/12/15 13:59:43;;;;;;;40.10;20.23;;;1.30;99.90;;;;;;4995025;28;20430;-67
2022/12/15 14:02:35;;;;;;;42.15;21.23;;;1.30;99.90;;;;;;4994231;28;20113;-66
2022/12/15 14:05:21;;;;;;;44.40;22.48;;;1.30;99.90;;;;;;4994167;28;20029;-66
2022/12/15 14:07:52;;;;;;;45.85;23.27;;;1.10;99.90;;;;;;4994510;28;20486;-66
2022/12/15 14:10:27;;;;;;;44.03;22.95;;;0.90;99.90;;;;;;4994145;28;20034;-66
2022/12/15 14:12:56;;;;;;;51.75;23.85;;;0.70;99.90;;;;;;5007222;28;20030;-66
2022/12/15 14:15:28;;;;;;;48.25;24.85;;;0.60;99.90;;;;;;5005651;28;20050;-66
2022/12/15 14:17:55;;;;;;;53.55;25.83;;;0.30;99.90;;;;;;4999608;28;20058;-66
2022/12/15 14:20:26;;;;;;;55.90;26.58;;;0.30;99.90;;;;;;5009888;28;20030;-67
2022/12/15 14:22:53;;;;;;;56.60;27.10;;;0.20;99.90;;;;;;4993749;28;20026;-66
2022/12/15 14:25:31;;;;;;;56.15;26.92;;;0.10;99.90;;;;;;4993833;28;20019;-66
2022/12/15 14:27:56;;;;;;;56.97;27.80;;;0.10;99.90;;;;;;4994623;28;20102;-66
2022/12/15 14:30:28;;;;;;;53.50;25.30;;;0.00;99.90;;;;;;4994065;28;20117;-66
2022/12/15 14:33:03;;;;;;;59.85;27.42;;;-0.20;99.90;;;;;;4996276;28;20154;-67
2022/12/15 14:35:38;;;;;;;62.03;28.65;;;-0.30;99.90;;;;;;4995474;28;20562;-66
2022/12/15 14:38:07;;;;;;;61.58;28.70;;;-0.30;99.90;;;;;;4994719;28;20394;-66
2022/12/15 14:40:36;;;;;;;65.53;27.88;;;-0.40;99.90;;;;;;4994465;28;20097;-67
2022/12/15 14:43:03;;;;;;;63.35;28.00;;;-0.40;99.90;;;;;;4997725;28;20156;-67
2022/12/15 14:45:31;;;;;;;67.07;29.48;;;-0.40;99.90;;;;;;4997813;28;20102;-67
2022/12/15 14:48:08;;;;;;;62.08;28.77;;;-0.50;99.90;;;;;;5012591;28;20177;-67
2022/12/15 14:50:35;;;;;;;61.33;28.23;;;-0.40;99.90;;;;;;4996756;28;20029;-67
2022/12/15 14:53:14;;;;;;;57.42;27.55;;;-0.40;99.90;;;;;;4989091;28;20023;-67
2022/12/15 14:55:40;;;;;;;59.38;27.25;;;-0.40;99.90;;;;;;4976491;28;20031;-67
2022/12/15 14:58:31;;;;;;;58.27;27.20;;;-0.50;99.90;;;;;;4977989;28;20040;-67
2022/12/15 15:00:57;;;;;;;61.22;27.60;;;-0.50;99.90;;;;;;4977502;28;20373;-66
2022/12/15 15:03:37;;;;;;;56.33;26.33;;;-0.50;99.90;;;;;;4976951;28;20488;-66
2022/12/15 15:06:03;;;;;;;56.28;26.92;;;-0.50;99.90;;;;;;4977733;28;20443;-66
2022/12/15 15:08:35;;;;;;;56.87;27.17;;;-0.50;99.90;;;;;;4994285;28;20026;-66
2022/12/15 15:11:23;;;;;;;60.08;26.33;;;-0.50;99.90;;;;;;4978764;28;20027;-67